Impacts TAF Board INFO
FOR SITUATIONAL AWARENESS. NOT TO BE USED FOR FLIGHT PLANNING PURPOSES.
IDs:

KIAH - Houston/Bush Intl, TX, US

Issued at 2330 UTC 26 Apr 2017
Updated at 0117 UTC 27 Apr 2017
Potential Impact None Slight Moderate High
Time0053Z 27/02Z 27/03Z 27/04Z 27/05Z 27/06Z 27/07Z 27/08Z 27/09Z 27/10Z 27/11Z 27/12Z 27/13Z 27/14Z>>
Type OBS PRVL PRVL PRVL PRVL PRVL PRVL PRVL PRVL PRVL PRVL PRVL PRVL PRVL
VIS 10 >6 >6 >6 >6 >6 >6 >6 >6 >6 >6 >6 >6 >6
CIG -- -- -- -- -- -- -- -- -- -- -- -- -- --
Cover SCT FEW SKC SKC SKC SKC SKC SKC SKC SKC SKC SKC SKC SKC
FltCat VFR VFR VFR VFR VFR VFR VFR VFR VFR VFR VFR VFR VFR VFR
WX -- -- -- -- -- -- -- -- -- -- -- -- -- --
WDir 350 320 340 340 340 340 340 340 340 VRB VRB VRB VRB VRB
WSpd 18 15 9 9 9 9 9 9 9 3 3 3 3 3
WGst 22 25 -- -- -- -- -- -- -- -- -- -- -- --

Raw TAF
KIAH 262330Z 2700/2806 32015G25KT P6SM FEW050
  FM270300 34009KT P6SM SKC
  FM271000 VRB03KT P6SM SKC
  FM271500 12007KT P6SM SKC
  FM272300 15009KT P6SM SKC


Raw METAR
KIAH 270053Z 35018G22KT 10SM FEW040 SCT250 26/15 A2961 RMK AO2 PRESRR SLP025 T02610150
KIAH 262353Z 32017G25KT 10SM FEW050 SCT250 29/16 A2956 RMK AO2 PK WND 34028/2309 SLP010 T02940156 10328 20283 53014
KIAH 262329Z 32013G22KT 10SM FEW050 SCT250 31/16 A2955 RMK AO2 PK WND 34028/2309 T03060156
KIAH 262253Z 28010G19KT 7SM SCT050 SCT130 32/17 A2951 RMK AO2 SLP993 T03220172

METAR Board
Radar Display
Forecast Discussion

FOR SITUATIONAL AWARENESS. NOT TO BE USED FOR FLIGHT PLANNING PURPOSES.

Page loaded:  01:17 UTC  |   06:17 PM Pacific  |   07:17 PM Mountain  |   08:17 PM Central  |   09:17 PM Eastern

 

ADVISORIES

FORECASTS

FORECASTS

OBSERVATIONS

USER TOOLS

ABOUT US